createdAt,value
2023-01-11T00:00:14.963Z,2.80
2023-01-11T00:02:45.967Z,3.77
2023-01-11T00:05:15.456Z,3.20
2023-01-11T00:07:45.341Z,3.95
2023-01-11T00:10:15.023Z,4.00
2023-01-11T00:12:45.116Z,3.52
2023-01-11T00:15:14.408Z,3.20
2023-01-11T00:17:43.960Z,3.12
2023-01-11T00:20:15.588Z,3.50
2023-01-11T00:22:45.079Z,3.55
2023-01-11T00:25:16.151Z,2.72
2023-01-11T00:27:48.183Z,3.50
2023-01-11T00:30:18.888Z,3.60
2023-01-11T00:32:48.208Z,3.55
2023-01-11T00:35:18.258Z,3.35
2023-01-11T00:37:47.488Z,3.42
2023-01-11T00:40:18.854Z,3.60
2023-01-11T00:43:06.026Z,3.52
2023-01-11T00:45:54.117Z,3.58
2023-01-11T00:48:23.573Z,3.60
2023-01-11T00:50:54.991Z,3.40
2023-01-11T00:53:23.952Z,3.50
2023-01-11T00:55:54.172Z,3.27
2023-01-11T00:58:23.200Z,4.15
2023-01-11T01:00:52.421Z,3.52
2023-01-11T01:03:21.727Z,3.25
2023-01-11T01:05:55.810Z,3.30
2023-01-11T01:08:25.227Z,3.15
2023-01-11T01:10:53.838Z,3.75
2023-01-11T01:13:41.161Z,3.00
2023-01-11T01:16:11.446Z,3.30
2023-01-11T01:18:41.688Z,3.20
2023-01-11T01:21:11.245Z,4.87
2023-01-11T01:23:40.175Z,3.72
2023-01-11T01:26:10.048Z,3.75
2023-01-11T01:28:39.548Z,3.70
2023-01-11T01:31:08.587Z,4.05
2023-01-11T01:33:37.817Z,3.80
2023-01-11T01:36:07.924Z,3.55
2023-01-11T01:38:36.619Z,4.00
2023-01-11T01:41:06.274Z,3.80
2023-01-11T01:43:57.557Z,3.60
2023-01-11T01:46:32.092Z,3.35
2023-01-11T01:49:11.687Z,3.17
2023-01-11T01:51:48.468Z,3.10
2023-01-11T01:54:22.986Z,3.08
2023-01-11T01:57:00.769Z,3.02
2023-01-11T01:59:30.397Z,4.53
2023-01-11T02:01:59.978Z,3.08
2023-01-11T02:04:37.553Z,3.27
2023-01-11T02:07:11.788Z,2.92
2023-01-11T02:09:55.966Z,3.47
2023-01-11T02:12:25.937Z,3.72
2023-01-11T02:14:55.340Z,3.27
2023-01-11T02:17:25.621Z,3.90
2023-01-11T02:20:06.259Z,3.15
2023-01-11T02:23:23.310Z,4.05
2023-01-11T02:26:31.246Z,3.47
2023-01-11T02:29:23.618Z,3.60
2023-01-11T02:32:09.620Z,3.02
2023-01-11T02:34:56.708Z,3.00
2023-01-11T02:38:07.801Z,2.23
2023-01-11T02:40:48.127Z,3.12
2023-01-11T02:43:44.076Z,3.50
2023-01-11T02:46:42.019Z,3.22
2023-01-11T02:52:13.847Z,3.37
2023-01-11T02:54:43.595Z,3.72
2023-01-11T02:57:12.597Z,3.72
2023-01-11T02:59:41.826Z,2.75
2023-01-11T03:02:11.478Z,2.90
2023-01-11T03:04:42.275Z,3.33
2023-01-11T03:07:48.856Z,4.35
2023-01-11T03:10:32.123Z,3.55
2023-01-11T03:13:44.160Z,2.80
2023-01-11T03:16:21.852Z,2.92
2023-01-11T03:19:03.894Z,3.02
2023-01-11T03:21:39.498Z,3.17
2023-01-11T03:24:36.118Z,2.58
2023-01-11T03:27:21.981Z,2.95
2023-01-11T03:30:14.908Z,3.15
2023-01-11T03:32:52.037Z,5.15
2023-01-11T03:35:38.358Z,3.47
2023-01-11T03:38:12.620Z,3.20
2023-01-11T03:40:46.057Z,3.55
2023-01-11T03:43:14.766Z,3.30
2023-01-11T03:46:00.784Z,3.52
2023-01-11T03:49:02.063Z,3.05
2023-01-11T03:51:34.333Z,3.30
2023-01-11T03:54:06.543Z,3.85
2023-01-11T03:57:09.796Z,3.02
2023-01-11T03:59:38.994Z,3.08
2023-01-11T04:02:21.614Z,3.33
2023-01-11T04:04:51.717Z,4.00
2023-01-11T04:07:20.537Z,3.33
2023-01-11T04:09:49.452Z,3.05
2023-01-11T04:12:18.972Z,3.30
2023-01-11T04:14:48.018Z,3.45
2023-01-11T04:17:16.977Z,3.95
2023-01-11T04:19:47.119Z,3.15
2023-01-11T04:22:17.073Z,3.87
2023-01-11T04:24:45.849Z,3.65
2023-01-11T04:27:15.098Z,3.52
2023-01-11T04:29:44.739Z,3.55
2023-01-11T04:32:18.871Z,3.55
2023-01-11T04:34:47.890Z,3.52
2023-01-11T04:37:16.593Z,3.85
2023-01-11T04:39:46.065Z,3.85
2023-01-11T04:42:20.832Z,4.03
2023-01-11T04:44:51.890Z,3.67
2023-01-11T04:47:22.573Z,4.00
2023-01-11T04:49:51.566Z,3.47
2023-01-11T04:52:22.177Z,4.00
2023-01-11T04:54:52.370Z,4.03
2023-01-11T04:57:20.944Z,3.42
2023-01-11T04:59:51.540Z,3.85
2023-01-11T05:02:21.136Z,3.10
2023-01-11T05:04:49.960Z,3.40
2023-01-11T05:07:19.016Z,3.20
2023-01-11T05:09:48.115Z,3.45
2023-01-11T05:12:16.625Z,3.62
2023-01-11T05:14:45.654Z,3.60
2023-01-11T05:17:16.216Z,3.40
2023-01-11T05:19:45.502Z,3.77
2023-01-11T05:22:14.014Z,3.90
2023-01-11T05:24:43.440Z,3.60
2023-01-11T05:27:12.024Z,3.90
2023-01-11T05:29:41.388Z,4.15
2023-01-11T05:32:13.376Z,3.75
2023-01-11T05:34:43.531Z,4.10
2023-01-11T05:37:12.412Z,3.77
2023-01-11T05:39:43.285Z,3.52
2023-01-11T05:42:12.633Z,3.35
2023-01-11T05:45:01.274Z,3.75
2023-01-11T05:47:30.360Z,4.05
2023-01-11T05:49:59.371Z,3.77
2023-01-11T05:52:32.399Z,3.20
2023-01-11T05:55:01.138Z,3.85
2023-01-11T05:57:30.028Z,3.98
2023-01-11T05:59:59.049Z,3.40
2023-01-11T06:02:28.216Z,3.50
2023-01-11T06:04:56.958Z,4.00
2023-01-11T06:07:25.589Z,4.20
2023-01-11T06:09:57.336Z,4.53
2023-01-11T06:12:26.559Z,5.85
2023-01-11T06:14:56.296Z,5.10
2023-01-11T06:17:25.122Z,5.80
2023-01-11T06:19:55.296Z,5.15
2023-01-11T06:22:24.998Z,4.70
2023-01-11T06:24:55.958Z,4.70
2023-01-11T06:27:25.483Z,4.08
2023-01-11T06:29:54.474Z,4.22
2023-01-11T06:32:25.108Z,3.87
2023-01-11T06:34:54.145Z,4.05
2023-01-11T06:37:23.252Z,4.37
2023-01-11T06:39:52.785Z,4.35
2023-01-11T10:31:31.415Z,4.17
2023-01-11T10:34:15.769Z,5.75
2023-01-11T10:37:01.292Z,5.65
2023-01-11T10:39:53.236Z,5.62
2023-01-11T10:42:28.377Z,5.12
2023-01-11T10:45:07.693Z,6.05
2023-01-11T10:47:41.028Z,4.87
2023-01-11T10:51:08.619Z,5.25
2023-01-11T10:54:08.306Z,4.97
2023-01-11T10:57:20.308Z,4.67
2023-01-11T11:00:13.490Z,5.05
2023-01-11T11:03:08.953Z,4.87
2023-01-11T11:06:19.136Z,4.87
2023-01-11T11:09:06.664Z,5.47
2023-01-11T11:11:49.449Z,4.22
2023-01-11T11:14:30.995Z,4.83
2023-01-11T11:17:25.875Z,4.97
2023-01-11T11:19:59.445Z,6.62
2023-01-11T11:22:49.015Z,5.25
2023-01-11T11:25:38.172Z,7.78
2023-01-11T11:28:27.775Z,10.75
2023-01-11T11:30:59.965Z,11.65
2023-01-11T11:33:45.325Z,6.70
2023-01-11T11:36:25.773Z,6.83
2023-01-11T11:39:36.867Z,5.65
2023-01-11T11:42:22.007Z,6.78
2023-01-11T11:45:19.469Z,5.50
2023-01-11T11:48:03.243Z,5.05
2023-01-11T11:50:49.143Z,5.95
2023-01-11T11:53:05.353Z,5.12
2023-01-11T11:55:35.147Z,5.62
2023-01-11T11:58:08.298Z,5.53
2023-01-11T12:00:47.538Z,5.80
2023-01-11T12:03:19.890Z,5.00
2023-01-11T12:06:01.121Z,4.62
2023-01-11T12:08:32.427Z,5.95
2023-01-11T12:11:07.701Z,5.08
2023-01-11T12:13:38.692Z,5.60
2023-01-11T12:16:20.438Z,4.83
2023-01-11T12:18:49.714Z,5.50
2023-01-11T12:21:27.150Z,5.30
2023-01-11T12:24:18.377Z,5.50
2023-01-11T12:27:09.288Z,5.55
2023-01-11T12:30:26.507Z,5.42
2023-01-11T12:33:10.329Z,4.95
2023-01-11T12:36:12.040Z,7.08
2023-01-11T12:38:56.690Z,4.75
2023-01-11T12:41:51.031Z,5.20
2023-01-11T12:44:45.072Z,5.45
2023-01-11T12:47:45.404Z,5.28
2023-01-11T12:50:29.095Z,6.17
2023-01-11T12:53:40.084Z,5.25
2023-01-11T12:56:51.771Z,7.83
2023-01-11T12:59:45.166Z,4.95
2023-01-11T13:02:57.797Z,5.55
2023-01-11T13:06:33.551Z,5.55
2023-01-11T13:09:33.981Z,5.05
2023-01-11T13:12:23.404Z,5.92
2023-01-11T19:26:54.588Z,8.03
2023-01-11T19:29:24.596Z,7.90
2023-01-11T19:31:55.627Z,7.05
2023-01-11T19:34:24.547Z,7.40
2023-01-11T19:36:54.511Z,7.25
2023-01-11T19:39:23.275Z,6.75
2023-01-11T19:41:56.532Z,6.55
2023-01-11T19:44:28.955Z,6.72
2023-01-11T19:47:10.312Z,6.42
2023-01-11T19:49:31.598Z,6.37
2023-01-11T19:52:01.901Z,6.10
2023-01-11T19:54:32.057Z,6.85
2023-01-11T19:57:00.623Z,6.67
2023-01-11T19:59:30.065Z,6.45
2023-01-11T20:02:05.250Z,7.17
2023-01-11T20:04:37.126Z,6.62
2023-01-11T20:07:07.162Z,6.80
2023-01-11T20:09:39.344Z,6.30
2023-01-11T20:12:10.205Z,6.55
2023-01-11T20:14:40.549Z,6.20
2023-01-11T20:17:09.433Z,6.40
2023-01-11T20:19:38.183Z,6.12
2023-01-11T20:22:07.460Z,5.72
2023-01-11T20:24:37.045Z,6.23
2023-01-11T20:27:06.196Z,6.50
2023-01-11T20:29:35.307Z,6.25
2023-01-11T20:32:27.902Z,6.62
2023-01-11T20:34:38.222Z,6.40
2023-01-11T20:37:08.835Z,6.15
2023-01-11T20:39:37.774Z,6.28
2023-01-11T20:42:09.513Z,6.60
2023-01-11T20:44:38.563Z,6.62
2023-01-11T20:47:07.185Z,6.87
2023-01-11T20:49:37.506Z,6.83
2023-01-11T20:52:06.387Z,6.65
2023-01-11T20:54:37.217Z,6.45
2023-01-11T20:57:08.464Z,6.08
2023-01-11T20:59:37.881Z,6.47
2023-01-11T21:02:10.832Z,6.20
2023-01-11T21:04:40.612Z,5.90
2023-01-11T21:07:09.333Z,6.22
2023-01-11T21:09:38.288Z,7.05
2023-01-11T21:12:09.451Z,6.08
2023-01-11T21:14:41.145Z,6.45
2023-01-11T21:17:10.087Z,7.15
2023-01-11T21:19:38.449Z,6.28
2023-01-11T21:22:07.876Z,5.85
2023-01-11T21:24:38.288Z,5.47
2023-01-11T21:27:07.916Z,5.70
2023-01-11T21:29:36.652Z,5.83
2023-01-11T21:32:07.566Z,6.00
2023-01-11T21:34:37.720Z,5.75
2023-01-11T21:37:06.678Z,5.65
2023-01-11T21:39:35.469Z,5.72
2023-01-11T21:42:06.153Z,5.70
2023-01-11T21:44:35.960Z,5.55
2023-01-11T21:47:06.357Z,5.00
2023-01-11T21:49:35.254Z,5.58
2023-01-11T21:52:03.773Z,6.00
2023-01-11T21:54:32.773Z,5.67
2023-01-11T21:57:02.753Z,5.35
2023-01-11T21:59:34.556Z,5.62
2023-01-11T22:02:03.254Z,5.40
2023-01-11T22:04:36.258Z,5.40
2023-01-11T22:07:05.536Z,5.60
2023-01-11T22:09:34.462Z,5.50
2023-01-11T22:12:04.917Z,5.50
2023-01-11T22:14:35.434Z,5.85
2023-01-11T22:17:04.629Z,5.70
2023-01-11T22:19:33.428Z,5.70
2023-01-11T22:22:01.979Z,5.92
2023-01-11T22:24:30.920Z,5.87
2023-01-11T22:27:00.398Z,5.78
2023-01-11T22:29:31.036Z,6.00
2023-01-11T22:32:01.213Z,6.40
2023-01-11T22:34:32.992Z,6.08
2023-01-11T22:37:02.194Z,6.47
2023-01-11T22:39:32.179Z,5.80
2023-01-11T22:42:02.303Z,6.25
2023-01-11T22:44:31.211Z,5.47
2023-01-11T22:47:00.584Z,6.97
2023-01-11T22:49:30.716Z,6.25
2023-01-11T22:51:59.521Z,6.33
2023-01-11T22:54:28.382Z,6.35
2023-01-11T22:56:58.385Z,5.97
2023-01-11T22:59:28.943Z,6.08
2023-01-11T23:01:58.431Z,6.70
2023-01-11T23:04:28.205Z,6.50
2023-01-11T23:06:57.433Z,6.50
2023-01-11T23:09:30.772Z,5.67
2023-01-11T23:12:18.353Z,6.03
2023-01-11T23:14:47.303Z,6.30
2023-01-11T23:17:18.017Z,6.10
2023-01-11T23:19:47.040Z,7.62
2023-01-11T23:22:16.597Z,5.97
2023-01-11T23:24:45.254Z,7.37
2023-01-11T23:27:13.855Z,6.65
2023-01-11T23:29:44.409Z,6.15
2023-01-11T23:32:12.951Z,6.58
2023-01-11T23:34:43.378Z,6.85
2023-01-11T23:37:12.728Z,7.33
2023-01-11T23:39:41.665Z,7.12
2023-01-11T23:42:28.060Z,6.53
2023-01-11T23:44:57.812Z,5.85
2023-01-11T23:47:28.183Z,6.40
2023-01-11T23:50:01.699Z,6.45
2023-01-11T23:52:31.876Z,6.65
2023-01-11T23:55:00.451Z,6.62
2023-01-11T23:57:29.416Z,6.58
2023-01-11T23:59:58.337Z,6.80
